createdAt,value
2022-08-07T00:01:42.887Z,85.99
2022-08-07T00:03:51.115Z,91.25
2022-08-07T00:06:17.746Z,95.57
2022-08-07T00:08:52.900Z,97.01
2022-08-07T00:11:21.788Z,99.30
2022-08-07T00:13:59.547Z,100.00
2022-08-07T00:16:28.083Z,100.00
2022-08-07T00:18:54.796Z,100.00
2022-08-07T00:21:56.269Z,100.00
2022-08-07T00:24:08.811Z,100.00
2022-08-07T00:26:49.419Z,100.00
2022-08-07T00:29:25.944Z,100.00
2022-08-07T00:32:01.827Z,100.00
2022-08-07T00:34:28.634Z,100.00
2022-08-07T00:36:56.071Z,100.00
2022-08-07T00:39:22.614Z,100.00
2022-08-07T00:42:01.771Z,100.00
2022-08-07T00:44:33.277Z,100.00
2022-08-07T00:47:01.107Z,100.00
2022-08-07T00:50:19.474Z,100.00
2022-08-07T00:52:14.824Z,100.00
2022-08-07T00:54:46.834Z,100.00
2022-08-07T00:57:21.918Z,100.00
2022-08-07T00:59:49.215Z,100.00
2022-08-07T01:02:28.656Z,100.00
2022-08-07T01:04:58.715Z,100.00
2022-08-07T01:07:27.604Z,100.00
2022-08-07T01:10:06.873Z,100.00
2022-08-07T01:12:40.050Z,100.00
2022-08-07T01:15:20.275Z,100.00
2022-08-07T01:17:46.976Z,98.89
2022-08-07T01:20:16.729Z,98.23
2022-08-07T01:22:46.798Z,97.96
2022-08-07T01:25:40.288Z,97.47
2022-08-07T01:28:14.470Z,96.34
2022-08-07T01:30:42.122Z,96.03
2022-08-07T01:33:08.870Z,95.53
2022-08-07T01:35:36.960Z,96.00
2022-08-07T01:38:24.913Z,95.33
2022-08-07T01:40:55.537Z,95.61
2022-08-07T01:43:23.177Z,95.36
2022-08-07T01:45:54.771Z,95.06
2022-08-07T01:48:30.539Z,94.93
2022-08-07T01:51:24.444Z,95.06
2022-08-07T01:54:09.604Z,94.46
2022-08-07T01:56:53.133Z,95.10
2022-08-07T01:59:36.211Z,95.27
2022-08-07T02:02:10.399Z,95.45
2022-08-07T02:04:52.590Z,95.79
2022-08-07T02:07:44.969Z,95.73
2022-08-07T02:10:18.920Z,95.53
2022-08-07T02:12:50.115Z,95.35
2022-08-07T02:15:22.777Z,96.08
2022-08-07T02:17:51.830Z,96.74
2022-08-07T02:20:23.298Z,96.79
2022-08-07T02:22:55.325Z,97.10
2022-08-07T02:26:10.532Z,96.80
2022-08-07T02:28:14.080Z,97.16
2022-08-07T02:30:52.270Z,97.61
2022-08-07T02:33:20.196Z,97.64
2022-08-07T02:36:29.914Z,97.99
2022-08-07T02:38:38.231Z,97.93
2022-08-07T02:41:05.525Z,96.65
2022-08-07T02:43:38.887Z,96.18
2022-08-07T02:46:07.356Z,95.08
2022-08-07T02:48:34.510Z,94.54
2022-08-07T02:51:07.135Z,93.97
2022-08-07T02:53:55.837Z,93.62
2022-08-07T02:56:26.189Z,93.42
2022-08-07T02:58:55.764Z,94.50
2022-08-07T03:01:35.315Z,95.15
2022-08-07T03:04:07.691Z,96.59
2022-08-07T03:06:40.582Z,97.32
2022-08-07T03:09:11.121Z,97.29
2022-08-07T03:11:52.206Z,96.89
2022-08-07T03:14:25.298Z,96.66
2022-08-07T03:16:52.498Z,96.27
2022-08-07T03:19:19.410Z,95.72
2022-08-07T03:21:50.759Z,96.16
2022-08-07T03:24:26.985Z,95.57
2022-08-07T03:26:59.736Z,95.39
2022-08-07T03:29:36.607Z,94.81
2022-08-07T03:32:12.807Z,94.29
2022-08-07T03:34:47.259Z,94.41
2022-08-07T03:37:32.507Z,94.53
2022-08-07T03:40:15.889Z,93.98
2022-08-07T03:42:43.624Z,93.96
2022-08-07T03:45:11.220Z,94.08
2022-08-07T03:47:47.806Z,93.56
2022-08-07T03:50:23.052Z,93.05
2022-08-07T03:52:52.424Z,93.65
2022-08-07T03:55:19.236Z,94.24
2022-08-07T03:58:34.144Z,93.88
2022-08-07T04:00:36.668Z,93.15
2022-08-07T04:03:05.178Z,92.95
2022-08-07T04:05:40.491Z,93.18
2022-08-07T04:08:13.180Z,93.23
2022-08-07T04:10:43.604Z,93.45
2022-08-07T04:13:22.971Z,93.53
2022-08-07T04:15:54.618Z,94.78
2022-08-07T04:18:56.671Z,95.72
2022-08-07T04:21:07.946Z,96.33
2022-08-07T04:23:43.612Z,97.46
2022-08-07T04:26:22.869Z,97.15
2022-08-07T04:28:51.694Z,97.15
2022-08-07T04:31:20.336Z,96.87
2022-08-07T04:34:06.689Z,96.75
2022-08-07T04:36:43.891Z,97.18
2022-08-07T04:39:12.185Z,97.10
2022-08-07T04:41:38.862Z,97.05
2022-08-07T04:44:12.957Z,97.12
2022-08-07T04:47:08.360Z,97.59
2022-08-07T04:49:57.516Z,96.89
2022-08-07T04:52:51.352Z,97.04
2022-08-07T04:58:10.345Z,97.00
2022-08-07T04:59:17.570Z,96.78
2022-08-07T05:01:30.000Z,96.31
2022-08-07T05:04:17.148Z,95.96
2022-08-07T05:07:01.250Z,95.72
2022-08-07T05:09:58.513Z,95.98
2022-08-07T05:12:33.294Z,97.24
2022-08-07T05:15:23.016Z,98.08
2022-08-07T05:17:54.925Z,98.97
2022-08-07T05:20:26.896Z,97.58
2022-08-07T05:22:58.122Z,97.73
2022-08-07T05:25:54.572Z,98.09
2022-08-07T05:28:20.589Z,98.19
2022-08-07T05:30:49.879Z,98.84
2022-08-07T05:33:20.818Z,99.54
2022-08-07T05:35:49.946Z,99.11
2022-08-07T05:39:01.382Z,99.25
2022-08-07T05:41:12.047Z,100.00
2022-08-07T05:44:01.128Z,100.00
2022-08-07T05:46:31.297Z,100.00
2022-08-07T05:48:59.703Z,100.00
2022-08-07T05:51:26.460Z,100.00
2022-08-07T05:54:09.385Z,100.00
2022-08-07T05:56:47.822Z,100.00
2022-08-07T05:59:21.095Z,100.00
2022-08-07T06:01:50.245Z,100.00
2022-08-07T06:04:19.738Z,100.00
2022-08-07T06:06:47.886Z,100.00
2022-08-07T06:10:01.846Z,100.00
2022-08-07T06:12:10.482Z,100.00
2022-08-07T06:14:39.498Z,100.00
2022-08-07T06:17:08.326Z,100.00
2022-08-07T06:19:52.438Z,100.00
2022-08-07T06:22:27.401Z,100.00
2022-08-07T06:25:01.121Z,100.00
2022-08-07T06:28:00.481Z,100.00
2022-08-07T06:30:32.038Z,100.00
2022-08-07T06:33:02.482Z,100.00
2022-08-07T06:35:39.104Z,100.00
2022-08-07T06:38:20.095Z,100.00
2022-08-07T06:40:51.949Z,100.00
2022-08-07T06:43:22.607Z,100.00
2022-08-07T06:45:50.594Z,100.00
2022-08-07T06:48:25.018Z,100.00
2022-08-07T06:50:54.872Z,100.00
2022-08-07T06:55:27.407Z,100.00
2022-08-07T06:56:15.566Z,100.00
2022-08-07T07:00:13.124Z,100.00
2022-08-07T07:01:43.671Z,100.00
2022-08-07T07:04:32.638Z,100.00
2022-08-07T07:07:01.144Z,100.00
2022-08-07T07:09:31.227Z,100.00
2022-08-07T07:12:25.627Z,100.00
2022-08-07T07:15:26.078Z,100.00
2022-08-07T07:18:02.573Z,100.00
2022-08-07T07:20:39.561Z,100.00
2022-08-07T07:24:09.176Z,100.00
2022-08-07T07:26:33.145Z,100.00
2022-08-07T07:29:40.538Z,100.00
2022-08-07T07:31:52.391Z,99.91
2022-08-07T07:34:31.009Z,99.79
2022-08-07T07:37:14.281Z,99.37
2022-08-07T07:39:54.614Z,99.24
2022-08-07T07:42:25.901Z,98.59
2022-08-07T07:45:02.949Z,98.71
2022-08-07T07:47:52.114Z,98.30
2022-08-07T07:50:32.870Z,98.18
2022-08-07T07:53:05.878Z,97.74
2022-08-07T07:55:54.759Z,97.57
2022-08-07T07:58:29.430Z,95.98
2022-08-07T08:00:57.600Z,95.51
2022-08-07T08:04:06.053Z,95.56
2022-08-07T08:06:13.146Z,95.75
2022-08-07T08:08:41.952Z,94.70
2022-08-07T08:11:16.410Z,94.20
2022-08-07T08:13:54.831Z,94.56
2022-08-07T08:16:30.084Z,95.08
2022-08-07T08:19:00.319Z,94.58
2022-08-07T08:22:03.353Z,94.36
2022-08-07T08:25:04.496Z,94.72
2022-08-07T08:27:55.902Z,95.57
2022-08-07T08:30:26.893Z,94.26
2022-08-07T08:32:56.825Z,93.67
2022-08-07T08:35:28.931Z,92.46
2022-08-07T08:38:08.684Z,92.80
2022-08-07T08:40:43.880Z,92.13
2022-08-07T08:43:22.091Z,91.30
2022-08-07T08:46:16.850Z,91.66
2022-08-07T08:48:55.596Z,90.93
2022-08-07T08:52:12.759Z,91.49
2022-08-07T08:54:27.616Z,92.00
2022-08-07T08:56:58.086Z,91.02
2022-08-07T08:59:41.993Z,89.91
2022-08-07T09:02:34.804Z,89.98
2022-08-07T09:05:31.930Z,90.17
2022-08-07T09:08:24.327Z,89.78
2022-08-07T09:11:24.351Z,89.94
2022-08-07T09:14:07.276Z,88.87
2022-08-07T09:17:08.501Z,89.94
2022-08-07T09:19:56.611Z,89.68
2022-08-07T09:24:33.848Z,89.73
2022-08-07T09:25:54.200Z,89.12
2022-08-07T09:30:00.693Z,90.23
2022-08-07T09:31:48.625Z,90.14
2022-08-07T09:34:28.006Z,90.83
2022-08-07T09:37:05.011Z,90.85
2022-08-07T09:39:53.672Z,90.05
2022-08-07T09:42:36.645Z,89.79
2022-08-07T09:47:24.706Z,90.68
2022-08-07T09:48:50.144Z,91.63
2022-08-07T09:52:16.325Z,91.22
2022-08-07T09:54:40.238Z,90.22
2022-08-07T09:57:21.942Z,91.62
2022-08-07T10:00:09.221Z,89.73
2022-08-07T10:04:05.923Z,89.56
2022-08-07T10:06:27.579Z,89.00
2022-08-07T10:09:10.851Z,89.40
2022-08-07T10:12:16.697Z,88.65
2022-08-07T10:14:56.980Z,87.52
2022-08-07T10:18:03.337Z,86.22
2022-08-07T10:20:44.339Z,85.88
2022-08-07T10:24:04.971Z,85.74
2022-08-07T10:26:53.234Z,86.00
2022-08-07T10:29:53.055Z,83.97
2022-08-07T10:32:52.956Z,84.55
2022-08-07T10:35:55.753Z,84.44
2022-08-07T10:38:41.959Z,84.59
2022-08-07T10:41:51.862Z,85.29
2022-08-07T10:44:37.710Z,84.27
2022-08-07T10:47:50.574Z,84.58
2022-08-07T10:50:25.944Z,85.19
2022-08-07T10:53:08.935Z,84.01
2022-08-07T10:55:50.750Z,83.96
2022-08-07T10:58:47.568Z,81.60
2022-08-07T11:01:51.918Z,80.67
2022-08-07T11:04:51.408Z,83.15
2022-08-07T11:08:06.516Z,81.85
2022-08-07T11:11:00.100Z,83.42
2022-08-07T11:14:45.144Z,80.89
2022-08-07T11:16:52.740Z,77.47
2022-08-07T11:19:31.015Z,79.94
2022-08-07T11:22:36.097Z,77.02
2022-08-07T11:25:18.629Z,76.02
2022-08-07T11:28:01.646Z,76.76
2022-08-07T11:30:42.240Z,73.95
2022-08-07T11:33:54.190Z,75.23
2022-08-07T11:36:49.636Z,77.76
2022-08-07T11:39:39.691Z,80.89
2022-08-07T11:42:33.719Z,82.71
2022-08-07T11:45:12.348Z,81.24
2022-08-07T11:48:02.104Z,80.99
2022-08-07T11:51:10.936Z,78.45
2022-08-07T11:54:09.757Z,79.21
2022-08-07T11:56:56.221Z,76.81
2022-08-07T12:00:12.505Z,75.90
2022-08-07T12:03:42.179Z,77.34
2022-08-07T12:06:01.985Z,77.45
2022-08-07T12:08:55.897Z,78.11
2022-08-07T12:11:32.470Z,77.97
2022-08-07T12:14:11.456Z,75.77
2022-08-07T12:17:00.462Z,78.84
2022-08-07T12:20:03.189Z,78.18
2022-08-07T12:22:58.546Z,77.62
2022-08-07T12:26:06.139Z,76.81
2022-08-07T12:29:20.324Z,76.91
2022-08-07T12:32:30.044Z,77.05
2022-08-07T12:34:59.153Z,75.55
2022-08-07T12:38:11.466Z,73.98
2022-08-07T12:40:46.336Z,73.66
2022-08-07T12:43:10.969Z,72.81
2022-08-07T12:46:06.465Z,72.22
2022-08-07T12:49:10.149Z,69.32
2022-08-07T12:52:18.071Z,67.06
2022-08-07T12:54:55.037Z,67.61
2022-08-07T12:57:38.914Z,66.38
2022-08-07T13:00:20.984Z,66.89
2022-08-07T13:03:07.050Z,66.29
2022-08-07T13:06:04.706Z,66.44
2022-08-07T13:08:26.657Z,66.02
2022-08-07T13:11:19.075Z,66.24
2022-08-07T13:14:03.161Z,65.26
2022-08-07T13:16:54.919Z,63.89
2022-08-07T13:19:46.109Z,64.33
2022-08-07T13:22:33.093Z,63.17
2022-08-07T13:25:23.907Z,61.20
2022-08-07T13:28:13.702Z,62.28
2022-08-07T13:30:53.367Z,61.91
2022-08-07T13:34:32.872Z,60.62
2022-08-07T13:36:42.388Z,62.08
2022-08-07T13:39:28.480Z,62.15
2022-08-07T13:42:10.116Z,61.42
2022-08-07T13:44:39.651Z,61.27
2022-08-07T13:47:15.749Z,60.10
2022-08-07T13:50:33.526Z,61.19
2022-08-07T13:52:41.189Z,60.09
2022-08-07T13:55:25.683Z,59.47
2022-08-07T13:58:27.829Z,59.33
2022-08-07T14:01:08.802Z,58.16
2022-08-07T14:04:07.267Z,56.99
2022-08-07T14:06:36.980Z,58.82
2022-08-07T14:09:06.216Z,59.96
2022-08-07T14:11:53.595Z,60.02
2022-08-07T14:14:38.627Z,59.66
2022-08-07T14:17:32.278Z,59.19
2022-08-07T14:20:40.754Z,59.37
2022-08-07T14:22:53.100Z,59.94
2022-08-07T14:25:29.448Z,59.64
2022-08-07T14:28:13.548Z,59.41
2022-08-07T14:30:45.773Z,57.46
2022-08-07T14:33:15.168Z,57.22
2022-08-07T14:35:43.335Z,57.88
2022-08-07T14:38:26.863Z,58.39
2022-08-07T14:41:02.159Z,59.30
2022-08-07T14:43:59.384Z,58.94
2022-08-07T14:46:31.095Z,57.91
2022-08-07T14:49:00.297Z,57.90
2022-08-07T14:54:42.910Z,57.94
2022-08-07T15:00:05.037Z,56.32
2022-08-07T15:02:34.580Z,57.17
2022-08-07T15:05:04.014Z,57.19
2022-08-07T15:07:47.675Z,56.83
2022-08-07T15:13:23.324Z,54.65
2022-08-07T15:15:58.949Z,54.15
2022-08-07T15:18:36.220Z,54.68
2022-08-07T15:21:58.769Z,54.85
2022-08-07T15:25:16.235Z,55.49
2022-08-07T15:27:21.586Z,54.92
2022-08-07T15:30:06.419Z,56.07
2022-08-07T15:36:00.356Z,55.30
2022-08-07T15:38:33.186Z,56.21
2022-08-07T15:41:23.954Z,56.28
2022-08-07T15:44:04.821Z,56.67
2022-08-07T15:46:38.550Z,56.44
2022-08-07T15:52:21.622Z,56.91
2022-08-07T15:55:03.537Z,57.64
2022-08-07T15:57:47.615Z,58.06
2022-08-07T16:00:31.896Z,57.26
2022-08-07T16:03:46.700Z,57.53
2022-08-07T16:06:12.936Z,57.59
2022-08-07T16:08:45.819Z,57.65
2022-08-07T16:11:41.592Z,57.04
2022-08-07T16:14:51.353Z,56.88
2022-08-07T16:18:02.245Z,56.01
2022-08-07T16:20:34.261Z,56.81
2022-08-07T16:23:54.662Z,56.04
2022-08-07T16:26:30.769Z,57.53
2022-08-07T16:30:08.828Z,59.04
2022-08-07T16:32:34.972Z,59.38
2022-08-07T16:35:58.781Z,58.65
2022-08-07T16:38:57.456Z,58.55
2022-08-07T16:41:54.411Z,58.94
2022-08-07T16:45:14.357Z,59.83
2022-08-07T16:48:02.651Z,59.46
2022-08-07T16:51:20.667Z,59.38
2022-08-07T16:54:06.457Z,59.48
2022-08-07T16:56:53.210Z,59.71
2022-08-07T16:59:46.114Z,59.81
2022-08-07T17:03:06.063Z,59.50
2022-08-07T17:06:26.716Z,60.38
2022-08-07T17:08:10.913Z,60.28
2022-08-07T17:10:43.947Z,60.36
2022-08-07T17:13:41.312Z,60.59
2022-08-07T17:16:33.302Z,60.71
2022-08-07T17:18:59.697Z,61.11
2022-08-07T17:21:51.509Z,61.22
2022-08-07T17:24:46.234Z,61.04
2022-08-07T17:27:19.896Z,61.59
2022-08-07T17:30:15.416Z,61.99
2022-08-07T17:34:10.311Z,62.23
2022-08-07T17:36:19.982Z,63.01
2022-08-07T17:38:55.358Z,63.70
2022-08-07T17:42:01.837Z,63.64
2022-08-07T17:44:50.562Z,63.92
2022-08-07T17:47:41.942Z,63.98
2022-08-07T17:50:18.967Z,63.83
2022-08-07T17:53:58.248Z,64.13
2022-08-07T17:56:15.378Z,63.89
2022-08-07T17:58:56.802Z,64.24
2022-08-07T18:01:36.680Z,64.79
2022-08-07T18:04:42.157Z,64.64
2022-08-07T18:07:21.006Z,65.28
2022-08-07T18:10:10.008Z,65.70
2022-08-07T18:12:55.454Z,66.55
2022-08-07T18:15:32.540Z,67.18
2022-08-07T18:19:02.717Z,66.86
2022-08-07T18:21:38.140Z,67.29
2022-08-07T18:24:33.889Z,68.04
2022-08-07T18:27:48.990Z,68.46
2022-08-07T18:30:31.480Z,68.34
2022-08-07T18:33:37.751Z,68.44
2022-08-07T18:36:32.780Z,69.45
2022-08-07T18:40:06.916Z,70.28
2022-08-07T18:42:21.620Z,71.53
2022-08-07T18:45:44.953Z,72.93
2022-08-07T18:50:32.339Z,73.71
2022-08-07T18:52:35.591Z,75.08
2022-08-07T18:54:54.054Z,75.30
2022-08-07T18:57:58.737Z,75.24
2022-08-07T19:01:02.373Z,75.94
2022-08-07T19:03:42.581Z,75.88
2022-08-07T19:06:33.905Z,75.55
2022-08-07T19:09:57.487Z,75.89
2022-08-07T19:12:17.843Z,75.14
2022-08-07T19:16:02.937Z,75.80
2022-08-07T19:18:34.918Z,75.59
2022-08-07T19:21:46.645Z,75.63
2022-08-07T19:24:02.319Z,75.69
2022-08-07T19:26:55.599Z,76.57
2022-08-07T19:30:55.871Z,77.42
2022-08-07T19:32:29.144Z,77.39
2022-08-07T19:35:02.900Z,78.70
2022-08-07T19:37:56.847Z,78.25
2022-08-07T19:40:30.933Z,78.45
2022-08-07T19:43:00.561Z,79.70
2022-08-07T19:46:04.673Z,80.85
2022-08-07T19:48:29.523Z,81.67
2022-08-07T19:51:19.820Z,81.83
2022-08-07T19:54:31.488Z,81.56
2022-08-07T19:58:00.224Z,81.99
2022-08-07T19:59:41.229Z,81.64
2022-08-07T20:02:19.285Z,81.78
2022-08-07T20:04:57.904Z,82.69
2022-08-07T20:07:46.662Z,82.71
2022-08-07T20:10:36.510Z,83.00
2022-08-07T20:13:22.846Z,82.59
2022-08-07T20:15:54.071Z,81.70
2022-08-07T20:18:21.912Z,81.48
2022-08-07T20:21:03.477Z,80.76
2022-08-07T20:23:53.913Z,82.89
2022-08-07T20:26:32.762Z,83.88
2022-08-07T20:29:46.701Z,85.16
2022-08-07T20:32:01.089Z,85.93
2022-08-07T20:34:49.698Z,86.01
2022-08-07T20:37:21.575Z,87.63
2022-08-07T20:40:02.231Z,87.88
2022-08-07T20:42:32.228Z,87.88
2022-08-07T20:45:01.058Z,88.75
2022-08-07T20:47:56.447Z,89.43
2022-08-07T20:50:20.417Z,90.77
2022-08-07T20:52:51.458Z,91.25
2022-08-07T20:55:23.793Z,91.97
2022-08-07T20:58:02.389Z,92.23
2022-08-07T21:00:42.586Z,92.58
2022-08-07T21:03:14.103Z,92.25
2022-08-07T21:05:54.522Z,92.25
2022-08-07T21:08:37.902Z,92.31
2022-08-07T21:11:12.414Z,92.00
2022-08-07T21:14:16.401Z,92.01
2022-08-07T21:16:56.976Z,93.64
2022-08-07T21:19:51.430Z,94.47
2022-08-07T21:22:34.422Z,95.30
2022-08-07T21:25:13.579Z,95.81
2022-08-07T21:28:02.181Z,96.62
2022-08-07T21:30:46.858Z,97.29
2022-08-07T21:33:22.013Z,96.34
2022-08-07T21:36:35.995Z,95.94
2022-08-07T21:39:46.809Z,95.28
2022-08-07T21:42:42.000Z,94.26
2022-08-07T21:46:09.223Z,94.21
2022-08-07T21:48:28.861Z,93.25
2022-08-07T21:51:20.035Z,92.53
2022-08-07T21:53:54.026Z,91.88
2022-08-07T21:56:50.615Z,91.13
2022-08-07T22:00:05.063Z,90.63
2022-08-07T22:03:30.900Z,90.81
2022-08-07T22:06:06.684Z,90.67
2022-08-07T22:09:12.492Z,89.95
2022-08-07T22:12:05.328Z,89.48
2022-08-07T22:14:59.418Z,89.19
2022-08-07T22:17:37.508Z,89.77
2022-08-07T22:20:22.901Z,90.40
2022-08-07T22:22:57.308Z,91.39
2022-08-07T22:25:51.226Z,92.00
2022-08-07T22:28:42.808Z,92.19
2022-08-07T22:31:59.744Z,93.53
2022-08-07T22:34:28.964Z,93.79
2022-08-07T22:37:04.930Z,93.41
2022-08-07T22:39:53.238Z,93.21
2022-08-07T22:42:26.094Z,92.75
2022-08-07T22:44:59.840Z,92.97
2022-08-07T22:47:38.571Z,93.15
2022-08-07T22:50:33.710Z,93.01
2022-08-07T22:53:15.333Z,92.50
2022-08-07T22:55:51.540Z,92.10
2022-08-07T22:58:39.307Z,90.96
2022-08-07T23:01:11.666Z,89.54
2022-08-07T23:04:12.643Z,89.09
2022-08-07T23:07:01.230Z,87.55
2022-08-07T23:10:00.681Z,87.00
2022-08-07T23:12:53.857Z,86.09
2022-08-07T23:16:06.418Z,84.92
2022-08-07T23:19:13.659Z,82.47
2022-08-07T23:21:49.249Z,80.47
2022-08-07T23:24:21.996Z,81.77
2022-08-07T23:27:34.096Z,81.27
2022-08-07T23:30:38.524Z,81.22
2022-08-07T23:34:34.962Z,80.75
2022-08-07T23:36:35.463Z,81.29
2022-08-07T23:39:40.936Z,81.48
2022-08-07T23:42:36.040Z,81.78
2022-08-07T23:46:02.221Z,81.77
2022-08-07T23:48:09.376Z,82.28
2022-08-07T23:52:55.895Z,82.98
2022-08-07T23:54:28.471Z,84.18
2022-08-07T23:57:18.547Z,83.96
